Almira, PR

1:50 AM AST on July 25, 2017 (GMT -0400)
kp4.Levittown Lakes PR | | Change Station

Elev 24 ft 18.44 °N, 66.17 °W | Updated 22 seconds ago

Partly Cloudy
Partly Cloudy
82.4 °F
Feels Like 92 °F
N
8.9
Wind Variable Wind from East
Gusts 9.8 mph

Today
High -- | Low -- °F
--% Chance of Precip.
Yesterday
High -- | Low -- °F
Precip. -- in
Pressure 30.07 in
Visibility 10.0 miles
Clouds Few 2000 ft
Scattered Clouds 2800 ft
Scattered Clouds 3600 ft
Heat Index 92 °F
Dew Point 78 °F
Humidity 86%
Rainfall 0.00 in
Snow Depth Not available.
6:00 AM 7:02 PM
Waxing Crescent, 5% visible
METAR TJSJ 250456Z 06010KT 10SM FEW020 SCT028 SCT036 28/25 A3007 RMK AO2 SLP182 VCSH SE-SW T02830250 $
Pressure 30.07 in
Visibility 10.0 miles
Clouds Few 2000 ft
Scattered Clouds 2800 ft
Scattered Clouds 3600 ft
Heat Index 92 °F
Dew Point 78 °F
Humidity 86%
Rainfall 0.00 in
Snow Depth Not available.
6:00 AM 7:02 PM
Waxing Crescent, 5% visible
METAR TJSJ 250456Z 06010KT 10SM FEW020 SCT028 SCT036 28/25 A3007 RMK AO2 SLP182 VCSH SE-SW T02830250 $

Get Severe Weather Alerts

Thanks for signing up!

Be on the lookout for a verification email in your inbox.

You'll start receiving the daily forecast at 6 AM.

×

10-Day Weather Forecast

Almanac

Astronomy

Jul. 25, 2017 Rise Set
Actual Time
Civil Twilight
Nautical Twilight
Astronomical Twilight
Moon
Length of Visible Light
Length of Day
Tomorrow will be .
, % of the Moon is Illuminated

Today's Extremes

State Highs State Lows

Community

WunderPhotos

Category 6

Welcome to Category 6. This is the collective home for Weather Underground's featured writeups by Dr. Jeff Masters (right), Bob Henson (left), Chris Burt, and other regular contributors.

Nearby

Air Quality

  Air Quality AQ Index Pollutant
Not available.

Snow Depth

Station Depth Elevation

Earthquake Activity

City Distance Mag. Time & Date
Minimum magnitude displayed is 2.5.

Coastal Water Temperatures

Place Temperature

Stations

Nearby Weather Stations

Station Location Temp. Windchill Dew Point Humidity Wind Precip. Elev Updated Type
                   

Watches & Warnings

There are currently no watches in effect.